createdAt,value
2019-05-07T00:00:43.566Z,1.47
2019-05-07T00:03:12.419Z,1.28
2019-05-07T00:05:42.944Z,1.18
2019-05-07T00:08:12.971Z,1.22
2019-05-07T00:10:42.948Z,1.25
2019-05-07T00:13:13.031Z,1.50
2019-05-07T00:15:44.067Z,1.22
2019-05-07T00:18:14.106Z,1.01
2019-05-07T00:20:44.161Z,1.17
2019-05-07T00:23:14.173Z,1.20
2019-05-07T00:25:44.152Z,1.28
2019-05-07T00:28:14.267Z,1.06
2019-05-07T00:30:44.322Z,1.30
2019-05-07T00:33:14.354Z,1.30
2019-05-07T00:36:02.669Z,1.37
2019-05-07T00:38:44.143Z,1.35
2019-05-07T00:41:24.986Z,1.20
2019-05-07T00:43:56.614Z,1.17
2019-05-07T00:46:27.764Z,1.22
2019-05-07T00:48:57.731Z,1.20
2019-05-07T00:51:29.429Z,1.06
2019-05-07T00:54:02.691Z,1.29
2019-05-07T00:56:33.246Z,1.18
2019-05-07T00:59:03.490Z,1.26
2019-05-07T01:01:34.146Z,1.29
2019-05-07T01:04:04.659Z,1.30
2019-05-07T01:06:34.636Z,1.33
2019-05-07T01:09:06.515Z,1.34
2019-05-07T01:11:36.475Z,1.45
2019-05-07T01:14:06.476Z,1.19
2019-05-07T01:16:36.647Z,1.19
2019-05-07T01:19:06.618Z,1.16
2019-05-07T01:21:36.736Z,1.25
2019-05-07T01:24:06.714Z,1.39
2019-05-07T01:26:36.711Z,1.40
2019-05-07T01:29:06.702Z,1.28
2019-05-07T01:31:38.383Z,1.26
2019-05-07T01:34:19.297Z,1.35
2019-05-07T01:36:49.331Z,1.44
2019-05-07T01:39:19.294Z,1.28
2019-05-07T01:41:49.278Z,1.29
2019-05-07T01:44:19.247Z,1.38
2019-05-07T01:46:50.206Z,1.32
2019-05-07T01:49:20.184Z,1.28
2019-05-07T01:51:50.224Z,1.37
2019-05-07T01:54:23.523Z,1.08
2019-05-07T01:56:52.249Z,1.12
2019-05-07T01:59:23.427Z,1.16
2019-05-07T02:01:55.173Z,1.33
2019-05-07T02:04:35.526Z,1.45
2019-05-07T02:07:15.862Z,1.15
2019-05-07T02:09:53.541Z,1.07
2019-05-07T02:12:27.959Z,1.31
2019-05-07T02:14:58.053Z,1.31
2019-05-07T02:17:28.107Z,1.35
2019-05-07T02:19:58.212Z,1.12
2019-05-07T02:22:42.789Z,1.26
2019-05-07T02:25:22.256Z,1.37
2019-05-07T02:27:52.938Z,1.33
2019-05-07T02:30:24.282Z,1.11
2019-05-07T02:32:54.463Z,1.13
2019-05-07T02:35:24.521Z,1.34
2019-05-07T02:37:57.011Z,1.35
2019-05-07T02:40:28.837Z,1.47
2019-05-07T02:42:58.828Z,1.11
2019-05-07T02:45:39.475Z,0.97
2019-05-07T02:48:12.779Z,1.11
2019-05-07T02:50:45.684Z,1.22
2019-05-07T02:53:18.195Z,1.13
2019-05-07T02:55:52.896Z,0.98
2019-05-07T02:58:24.003Z,1.04
2019-05-07T03:00:54.547Z,1.02
2019-05-07T03:03:24.989Z,1.09
2019-05-07T03:05:55.072Z,1.09
2019-05-07T03:08:27.559Z,1.29
2019-05-07T03:10:57.057Z,1.25
2019-05-07T03:13:27.040Z,1.08
2019-05-07T03:15:57.200Z,1.14
2019-05-07T03:18:27.458Z,1.02
2019-05-07T03:20:59.212Z,1.11
2019-05-07T03:23:33.743Z,1.22
2019-05-07T03:26:09.723Z,1.23
2019-05-07T03:28:42.740Z,1.27
2019-05-07T03:31:16.767Z,1.30
2019-05-07T03:33:48.043Z,1.10
2019-05-07T03:36:19.793Z,1.16
2019-05-07T03:38:49.768Z,1.12
2019-05-07T03:41:22.697Z,1.14
2019-05-07T03:43:52.895Z,1.21
2019-05-07T03:46:23.687Z,1.29
2019-05-07T03:48:53.743Z,1.10
2019-05-07T03:51:23.958Z,1.14
2019-05-07T03:53:55.193Z,1.14
2019-05-07T03:56:25.174Z,0.98
2019-05-07T03:58:55.203Z,0.97
2019-05-07T04:01:25.186Z,1.01
2019-05-07T04:03:55.202Z,0.99
2019-05-07T04:06:25.172Z,1.08
2019-05-07T04:08:55.204Z,1.16
2019-05-07T04:11:25.193Z,0.92
2019-05-07T04:13:55.193Z,0.88
2019-05-07T04:16:25.211Z,1.04
2019-05-07T04:18:55.175Z,1.12
2019-05-07T04:21:25.155Z,0.94
2019-05-07T04:23:56.787Z,1.07
2019-05-07T04:26:33.960Z,1.05
2019-05-07T04:29:07.270Z,0.92
2019-05-07T04:31:38.954Z,1.16
2019-05-07T04:34:13.172Z,1.22
2019-05-07T04:36:44.059Z,1.11
2019-05-07T04:39:14.122Z,1.09
2019-05-07T04:41:44.106Z,1.02
2019-05-07T04:44:14.498Z,1.08
2019-05-07T04:46:47.937Z,0.98
2019-05-07T04:49:16.301Z,1.03
2019-05-07T04:51:53.027Z,1.12
2019-05-07T04:54:23.828Z,1.20
2019-05-07T04:56:53.942Z,1.20
2019-05-07T04:59:25.075Z,1.34
2019-05-07T05:01:56.756Z,1.12
2019-05-07T05:04:34.026Z,1.11
2019-05-07T05:06:58.409Z,1.04
2019-05-07T05:09:28.376Z,1.21
2019-05-07T05:11:58.513Z,1.30
2019-05-07T05:14:28.477Z,1.20
2019-05-07T05:17:01.946Z,1.42
2019-05-07T05:19:32.295Z,1.30
2019-05-07T05:22:04.308Z,1.21
2019-05-07T05:24:35.938Z,1.08
2019-05-07T05:27:05.992Z,1.29
2019-05-07T05:29:38.386Z,1.48
2019-05-07T05:32:08.455Z,1.54
2019-05-07T05:34:38.426Z,1.32
2019-05-07T05:37:08.401Z,1.32
2019-05-07T05:39:38.444Z,1.48
2019-05-07T05:42:13.024Z,1.82
2019-05-07T05:44:43.016Z,1.89
2019-05-07T05:47:13.617Z,1.99
2019-05-07T05:49:45.250Z,1.51
2019-05-07T05:52:22.056Z,1.68
2019-05-07T05:54:54.380Z,1.67
2019-05-07T05:57:32.251Z,1.77
2019-05-07T06:00:22.027Z,1.91
2019-05-07T06:02:53.323Z,2.04
2019-05-07T06:05:41.533Z,1.99
2019-05-07T06:08:18.888Z,1.53
2019-05-07T06:10:56.000Z,1.55
2019-05-07T06:13:27.647Z,1.79
2019-05-07T06:16:14.365Z,1.65
2019-05-07T06:18:46.033Z,1.61
2019-05-07T06:21:26.548Z,1.60
2019-05-07T06:24:02.265Z,1.82
2019-05-07T06:26:32.320Z,1.73
2019-05-07T06:29:02.523Z,1.82
2019-05-07T06:31:32.812Z,1.81
2019-05-07T06:34:02.860Z,1.65
2019-05-07T06:36:34.557Z,1.90
2019-05-07T06:39:12.568Z,2.00
2019-05-07T06:42:02.059Z,2.08
2019-05-07T06:44:33.522Z,2.10
2019-05-07T06:47:03.547Z,2.14
2019-05-07T06:49:33.569Z,2.21
2019-05-07T06:52:03.550Z,1.89
2019-05-07T06:54:33.533Z,2.20
2019-05-07T06:57:03.704Z,2.22
2019-05-07T06:59:35.397Z,2.40
2019-05-07T07:02:22.649Z,2.58
2019-05-07T07:05:02.825Z,2.57
2019-05-07T07:07:37.313Z,2.63
2019-05-07T07:10:12.060Z,2.59
2019-05-07T07:12:42.615Z,2.40
2019-05-07T07:15:13.722Z,2.33
2019-05-07T07:17:43.843Z,2.40
2019-05-07T07:20:14.267Z,2.31
2019-05-07T07:22:44.304Z,2.40
2019-05-07T07:25:14.285Z,2.66
2019-05-07T07:27:44.337Z,2.61
2019-05-07T07:30:28.170Z,2.50
2019-05-07T07:32:59.853Z,2.79
2019-05-07T07:35:32.034Z,2.76
2019-05-07T07:38:03.330Z,2.99
2019-05-07T07:40:42.237Z,3.37
2019-05-07T07:43:12.893Z,3.33
2019-05-07T07:45:43.050Z,3.54
2019-05-07T07:48:13.318Z,3.84
2019-05-07T07:50:43.535Z,3.74
2019-05-07T07:53:13.519Z,3.48
2019-05-07T07:55:45.199Z,3.37
2019-05-07T07:58:23.000Z,3.08
2019-05-07T08:00:54.740Z,3.16
2019-05-07T08:03:24.777Z,3.34
2019-05-07T08:05:55.852Z,3.29
2019-05-07T08:08:26.038Z,3.58
2019-05-07T08:10:56.025Z,3.85
2019-05-07T08:13:27.412Z,3.50
2019-05-07T08:15:57.594Z,3.48
2019-05-07T08:18:27.668Z,3.06
2019-05-07T08:20:57.675Z,3.20
2019-05-07T08:23:27.727Z,3.83
2019-05-07T08:25:57.773Z,3.84
2019-05-07T08:28:27.901Z,3.49
2019-05-07T08:31:02.990Z,3.35
2019-05-07T08:33:35.914Z,3.73
2019-05-07T08:36:16.644Z,3.69
2019-05-07T08:38:53.542Z,3.55
2019-05-07T08:41:25.511Z,3.52
2019-05-07T08:44:11.575Z,3.67
2019-05-07T08:46:42.080Z,3.79
2019-05-07T08:49:13.519Z,3.92
2019-05-07T08:54:40.075Z,3.95
2019-05-07T08:57:11.740Z,3.69
2019-05-07T08:59:46.776Z,3.95
2019-05-07T09:02:13.638Z,3.62
2019-05-07T09:04:43.606Z,3.82
2019-05-07T09:07:13.616Z,3.89
2019-05-07T09:09:43.932Z,4.32
2019-05-07T09:12:13.975Z,4.42
2019-05-07T09:14:43.935Z,4.25
2019-05-07T09:17:13.993Z,4.52
2019-05-07T09:19:50.755Z,4.63
2019-05-07T09:22:15.685Z,4.52
2019-05-07T09:24:45.677Z,4.34
2019-05-07T09:27:17.519Z,4.88
2019-05-07T09:29:49.206Z,5.58
2019-05-07T09:32:24.045Z,5.09
2019-05-07T09:34:58.831Z,5.07
2019-05-07T09:37:32.431Z,5.17
2019-05-07T09:40:02.796Z,5.52
2019-05-07T09:42:33.511Z,5.57
2019-05-07T09:45:07.207Z,5.69
2019-05-07T09:47:37.168Z,5.60
2019-05-07T09:50:08.823Z,6.15
2019-05-07T09:52:38.991Z,5.46
2019-05-07T09:55:16.375Z,5.90
2019-05-07T09:57:42.412Z,5.31
2019-05-07T10:00:14.297Z,5.44
2019-05-07T10:02:44.431Z,5.15
2019-05-07T10:05:14.760Z,5.47
2019-05-07T10:07:44.837Z,5.25
2019-05-07T10:10:15.316Z,5.08
2019-05-07T10:12:47.170Z,5.59
2019-05-07T10:15:17.285Z,5.28
2019-05-07T10:17:54.486Z,5.20
2019-05-07T10:20:25.306Z,5.54
2019-05-07T10:22:55.614Z,5.59
2019-05-07T10:25:27.266Z,5.81
2019-05-07T10:27:57.612Z,5.76
2019-05-07T10:30:27.586Z,5.13
2019-05-07T10:32:57.645Z,5.66
2019-05-07T10:35:30.794Z,5.57
2019-05-07T10:38:02.004Z,5.94
2019-05-07T10:40:32.702Z,6.02
2019-05-07T10:43:03.045Z,6.03
2019-05-07T10:45:43.808Z,6.36
2019-05-07T10:48:15.560Z,6.69
2019-05-07T10:50:51.705Z,6.79
2019-05-07T10:53:22.981Z,6.10
2019-05-07T10:55:54.165Z,6.11
2019-05-07T10:58:24.221Z,6.49
2019-05-07T11:00:55.441Z,6.55
2019-05-07T11:03:25.576Z,7.20
2019-05-07T11:05:55.645Z,7.19
2019-05-07T11:08:26.004Z,8.00
2019-05-07T11:10:56.117Z,8.96
2019-05-07T11:13:26.092Z,9.60
2019-05-07T11:15:57.866Z,10.48
2019-05-07T11:18:29.572Z,10.46
2019-05-07T11:21:02.682Z,9.85
2019-05-07T11:23:35.081Z,11.15
2019-05-07T11:26:05.322Z,8.84
2019-05-07T11:28:35.414Z,9.41
2019-05-07T11:31:05.515Z,9.23
2019-05-07T11:33:35.598Z,10.29
2019-05-07T11:36:05.924Z,10.43
2019-05-07T11:38:35.901Z,8.26
2019-05-07T11:41:05.897Z,9.04
2019-05-07T11:43:55.636Z,9.09
2019-05-07T11:46:30.138Z,10.31
2019-05-07T11:49:04.427Z,10.73
2019-05-07T11:51:36.128Z,11.89
2019-05-07T11:54:12.322Z,11.41
2019-05-07T11:56:42.484Z,9.16
2019-05-07T11:59:13.521Z,12.00
2019-05-07T12:01:47.973Z,10.54
2019-05-07T12:04:18.142Z,12.00
2019-05-07T12:06:52.068Z,11.12
2019-05-07T12:09:22.228Z,11.92
2019-05-07T12:11:52.205Z,11.17
2019-05-07T12:14:30.948Z,9.63
2019-05-07T12:16:53.904Z,10.16
2019-05-07T12:19:25.102Z,11.68
2019-05-07T12:21:55.088Z,12.47
2019-05-07T12:24:25.099Z,9.80
2019-05-07T12:26:55.254Z,10.37
2019-05-07T12:29:25.255Z,11.27
2019-05-07T12:31:56.926Z,10.49
2019-05-07T12:34:28.630Z,9.47
2019-05-07T12:36:58.738Z,10.33
2019-05-07T12:39:28.736Z,9.59
2019-05-07T12:41:58.784Z,9.63
2019-05-07T12:44:28.836Z,10.38
2019-05-07T12:46:58.956Z,8.90
2019-05-07T12:49:28.989Z,10.33
2019-05-07T12:52:03.368Z,9.38
2019-05-07T12:54:47.029Z,10.67
2019-05-07T12:57:17.083Z,11.23
2019-05-07T12:59:49.533Z,10.57
2019-05-07T13:02:37.174Z,10.88
2019-05-07T13:04:57.885Z,8.71
2019-05-07T13:07:28.205Z,9.35
2019-05-07T13:09:58.191Z,9.46
2019-05-07T13:12:28.224Z,9.52
2019-05-07T13:14:58.198Z,10.03
2019-05-07T13:17:28.214Z,10.39
2019-05-07T13:19:58.199Z,9.27
2019-05-07T13:22:28.263Z,9.47
2019-05-07T13:24:58.242Z,9.23
2019-05-07T13:27:28.296Z,9.47
2019-05-07T13:30:02.386Z,9.06
2019-05-07T13:32:33.063Z,8.63
2019-05-07T13:35:03.187Z,8.29
2019-05-07T13:37:41.818Z,8.65
2019-05-07T13:40:25.932Z,8.87
2019-05-07T13:43:02.774Z,9.00
2019-05-07T13:45:34.244Z,8.45
2019-05-07T13:48:08.787Z,8.20
2019-05-07T13:51:01.672Z,8.06
2019-05-07T13:53:32.239Z,8.37
2019-05-07T13:56:02.555Z,7.93
2019-05-07T13:58:33.049Z,7.87
2019-05-07T14:01:05.018Z,7.85
2019-05-07T14:03:35.050Z,8.11
2019-05-07T14:06:05.170Z,8.39
2019-05-07T14:08:37.057Z,8.70
2019-05-07T14:11:07.184Z,8.61
2019-05-07T14:13:38.158Z,8.24
2019-05-07T14:16:09.241Z,8.33
2019-05-07T14:18:39.833Z,8.69
2019-05-07T14:21:10.016Z,8.64
2019-05-07T14:23:40.009Z,8.65
2019-05-07T14:26:10.112Z,8.45
2019-05-07T14:28:42.161Z,8.01
2019-05-07T14:31:12.276Z,8.13
2019-05-07T14:33:44.159Z,8.35
2019-05-07T14:36:22.389Z,8.34
2019-05-07T14:38:53.564Z,8.41
2019-05-07T14:41:25.707Z,8.02
2019-05-07T14:44:02.953Z,8.13
2019-05-07T14:46:44.561Z,8.22
2019-05-07T14:49:05.166Z,7.94
2019-05-07T15:51:38.159Z,7.68
2019-05-07T15:54:08.146Z,7.58
2019-05-07T15:56:38.133Z,7.84
2019-05-07T15:59:09.757Z,8.04
2019-05-07T16:01:41.808Z,7.91
2019-05-07T16:04:21.748Z,8.02
2019-05-07T16:06:43.186Z,8.14
2019-05-07T16:09:13.245Z,8.34
2019-05-07T16:11:43.349Z,8.31
2019-05-07T16:14:17.994Z,8.28
2019-05-07T16:16:48.256Z,7.94
2019-05-07T16:19:19.876Z,8.08
2019-05-07T16:21:49.930Z,8.08
2019-05-07T16:24:22.430Z,8.00
2019-05-07T16:26:52.307Z,7.85
2019-05-07T16:29:22.649Z,7.69
2019-05-07T16:31:52.653Z,7.77
2019-05-07T16:34:24.687Z,7.46
2019-05-07T16:36:54.409Z,7.31
2019-05-07T16:39:24.391Z,7.23
2019-05-07T16:41:54.399Z,7.15
2019-05-07T16:44:24.384Z,7.14
2019-05-07T16:46:54.381Z,7.09
2019-05-07T16:49:24.523Z,6.41
2019-05-07T16:51:54.561Z,6.40
2019-05-07T16:54:24.557Z,5.98
2019-05-07T16:57:03.110Z,6.29
2019-05-07T16:59:34.317Z,6.29
2019-05-07T17:02:06.026Z,6.46
2019-05-07T17:04:36.025Z,7.15
2019-05-07T17:07:07.728Z,7.20
2019-05-07T17:09:37.852Z,7.15
2019-05-07T17:12:09.517Z,7.02
2019-05-07T17:14:39.481Z,6.88
2019-05-07T17:17:11.965Z,6.93
2019-05-07T17:19:42.544Z,6.85
2019-05-07T17:22:12.614Z,7.11
2019-05-07T17:24:42.630Z,7.10
2019-05-07T17:27:12.616Z,7.00
2019-05-07T17:29:43.006Z,6.83
2019-05-07T17:32:13.392Z,6.82
2019-05-07T17:34:43.370Z,7.03
2019-05-07T17:37:13.493Z,6.75
2019-05-07T17:39:43.478Z,6.53
2019-05-07T17:42:13.450Z,6.55
2019-05-07T17:44:43.456Z,6.68
2019-05-07T17:47:13.439Z,6.72
2019-05-07T17:49:43.478Z,6.61
2019-05-07T17:52:13.451Z,6.64
2019-05-07T17:54:43.436Z,6.62
2019-05-07T17:57:15.890Z,6.50
2019-05-07T17:59:45.342Z,6.45
2019-05-07T18:02:33.285Z,6.02
2019-05-07T18:05:03.772Z,6.24
2019-05-07T18:07:36.837Z,6.33
2019-05-07T18:10:07.257Z,6.28
2019-05-07T18:12:37.625Z,6.22
2019-05-07T18:15:07.941Z,5.96
2019-05-07T18:17:45.587Z,6.01
2019-05-07T18:20:15.807Z,5.97
2019-05-07T18:22:45.813Z,5.86
2019-05-07T18:25:15.793Z,5.67
2019-05-07T18:27:45.949Z,5.33
2019-05-07T18:30:16.349Z,5.31
2019-05-07T18:32:48.012Z,5.34
2019-05-07T18:35:18.000Z,5.13
2019-05-07T18:37:52.512Z,5.22
2019-05-07T18:40:23.210Z,5.22
2019-05-07T18:42:53.318Z,5.35
2019-05-07T18:45:23.323Z,5.21
2019-05-07T18:47:53.306Z,5.03
2019-05-07T18:50:23.323Z,4.86
2019-05-07T18:52:53.570Z,4.77
2019-05-07T18:55:23.586Z,4.69
2019-05-07T18:57:53.558Z,4.70
2019-05-07T19:00:31.758Z,4.55
2019-05-07T19:03:03.396Z,4.41
2019-05-07T19:05:33.760Z,4.40
2019-05-07T19:08:08.020Z,4.36
2019-05-07T19:10:35.844Z,4.24
2019-05-07T19:13:06.064Z,4.11
2019-05-07T19:15:36.099Z,3.92
2019-05-07T19:18:06.126Z,3.98
2019-05-07T19:20:36.115Z,3.83
2019-05-07T19:23:06.204Z,3.80
2019-05-07T19:25:36.188Z,3.84
2019-05-07T19:28:06.545Z,3.70
2019-05-07T19:30:36.521Z,3.60
2019-05-07T19:33:06.577Z,3.46
2019-05-07T19:35:36.619Z,3.33
2019-05-07T19:38:06.592Z,3.26
2019-05-07T19:40:36.607Z,3.33
2019-05-07T19:43:06.838Z,3.26
2019-05-07T19:45:36.989Z,2.95
2019-05-07T19:48:07.124Z,3.12
2019-05-07T19:50:37.253Z,2.93
2019-05-07T19:53:07.340Z,2.87
2019-05-07T19:55:55.223Z,2.66
2019-05-07T19:58:25.209Z,2.66
2019-05-07T20:00:57.321Z,2.73
2019-05-07T20:03:27.012Z,2.64
2019-05-07T20:05:57.128Z,2.39
2019-05-07T20:08:27.176Z,2.10
2019-05-07T20:11:04.540Z,1.96
2019-05-07T20:13:34.610Z,2.01
2019-05-07T20:16:20.371Z,2.08
2019-05-07T20:18:52.397Z,2.14
2019-05-07T20:21:22.948Z,2.08
2019-05-07T20:23:53.203Z,1.86
2019-05-07T20:26:23.375Z,2.01
2019-05-07T20:28:53.473Z,1.78
2019-05-07T20:31:23.449Z,1.68
2019-05-07T20:33:53.655Z,1.66
2019-05-07T20:36:23.633Z,1.73
2019-05-07T20:38:53.619Z,1.39
2019-05-07T20:41:23.636Z,1.27
2019-05-07T20:43:54.482Z,1.24
2019-05-07T20:46:24.489Z,1.23
2019-05-07T20:48:54.460Z,1.32
2019-05-07T20:51:24.481Z,1.19
2019-05-07T20:53:58.870Z,1.23
2019-05-07T20:56:48.629Z,0.99
2019-05-07T20:59:18.688Z,0.88
2019-05-07T21:01:48.691Z,0.90
2019-05-07T21:04:18.675Z,0.86
2019-05-07T21:06:48.727Z,0.68
2019-05-07T21:09:18.846Z,0.75
2019-05-07T21:11:48.920Z,0.76
2019-05-07T21:14:18.942Z,0.48
2019-05-07T21:16:49.055Z,0.55
2019-05-07T21:19:19.038Z,0.49
2019-05-07T21:30:52.219Z,0.22
2019-05-07T21:33:26.286Z,0.29
2019-05-07T21:35:56.316Z,0.19
2019-05-07T21:38:27.288Z,0.24
2019-05-07T21:40:57.266Z,0.13
2019-05-07T21:43:27.291Z,-0.08
2019-05-07T21:45:57.293Z,0.03
2019-05-07T21:48:28.340Z,0.13
2019-05-07T21:50:58.379Z,0.15
2019-05-07T21:53:35.476Z,-0.05
2019-05-07T21:56:12.210Z,-0.01
2019-05-07T21:58:42.983Z,-0.11
2019-05-07T22:01:23.911Z,-0.08
2019-05-07T22:03:55.205Z,-0.08
2019-05-07T22:06:25.270Z,-0.13
2019-05-07T22:08:55.338Z,-0.12
2019-05-07T22:11:26.435Z,-0.19
2019-05-07T22:17:30.467Z,-0.13
2019-05-07T22:20:02.997Z,-0.37
2019-05-07T22:22:32.903Z,-0.29
2019-05-07T22:25:05.320Z,-0.31
2019-05-07T22:27:36.515Z,-0.40
2019-05-07T22:30:12.528Z,-0.52
2019-05-07T22:32:47.424Z,-0.46
2019-05-07T22:35:22.644Z,-0.61
2019-05-07T22:37:59.837Z,-0.52
2019-05-07T22:40:32.109Z,-0.63
2019-05-07T22:43:04.022Z,-0.61
2019-05-07T22:45:34.131Z,-0.76
2019-05-07T22:48:04.194Z,-0.54
2019-05-07T22:50:34.220Z,-0.73
2019-05-07T22:53:04.278Z,-0.78
2019-05-07T22:55:34.319Z,-0.87
2019-05-07T22:58:08.651Z,-0.85
2019-05-07T23:00:42.546Z,-0.94
2019-05-07T23:03:12.770Z,-0.95
2019-05-07T23:05:44.958Z,-0.91
2019-05-07T23:08:14.530Z,-0.81
2019-05-07T23:10:44.745Z,-0.96
2019-05-07T23:13:14.697Z,-1.02
2019-05-07T23:15:45.879Z,-0.95
2019-05-07T23:18:15.872Z,-1.01
2019-05-07T23:20:45.934Z,-0.97
2019-05-07T23:23:15.918Z,-0.96
2019-05-07T23:25:45.984Z,-0.97
2019-05-07T23:28:15.948Z,-1.02
2019-05-07T23:30:46.108Z,-1.10
2019-05-07T23:33:16.233Z,-1.25
2019-05-07T23:35:46.207Z,-1.10
2019-05-07T23:38:16.214Z,-1.28
2019-05-07T23:40:47.900Z,-1.37
2019-05-07T23:43:19.516Z,-1.26
2019-05-07T23:45:49.525Z,-1.26
2019-05-07T23:48:19.518Z,-1.40
2019-05-07T23:50:49.552Z,-1.44
2019-05-07T23:53:19.551Z,-1.33
2019-05-07T23:55:51.867Z,-1.34
2019-05-07T23:58:22.999Z,-1.35
